Time;durP1;ratioP1;P1;durP2;ratioP2;P2;SDS_P1;SDS_P2;PMS_P1;PMS_P2;Temp;Humidity;BMP_temperature;BMP_pressure;BME280_temperature;BME280_humidity;BME280_pressure;Samples;Min_cycle;Max_cycle;Signal;HPM_P1;HPM_P2
2022/11/15 00:00:24;;;;;;;19.98;11.88;;;10.00;76.00;;;;;;5100388;28;20033;-60
2022/11/15 00:02:51;;;;;;;20.05;11.65;;;10.00;76.00;;;;;;5103763;28;20031;-58
2022/11/15 00:05:17;;;;;;;18.38;10.75;;;10.00;76.10;;;;;;5079878;28;20028;-59
2022/11/15 00:07:43;;;;;;;19.35;12.07;;;10.00;76.20;;;;;;5097638;28;20054;-59
2022/11/15 00:10:08;;;;;;;20.42;11.68;;;10.00;76.10;;;;;;5098146;28;20053;-58
2022/11/15 00:12:34;;;;;;;18.33;12.18;;;10.10;76.10;;;;;;5095776;28;20058;-60
2022/11/15 00:15:00;;;;;;;23.92;12.43;;;10.00;76.00;;;;;;5101111;28;20024;-59
2022/11/15 00:17:25;;;;;;;21.92;12.35;;;10.00;76.00;;;;;;5106586;28;20048;-58
2022/11/15 00:19:51;;;;;;;21.65;13.18;;;10.00;76.00;;;;;;5104062;28;20038;-60
2022/11/15 00:22:17;;;;;;;18.63;11.70;;;10.10;76.10;;;;;;5101460;28;20028;-58
2022/11/15 00:24:42;;;;;;;27.00;12.52;;;10.00;76.00;;;;;;5104026;28;20034;-60
2022/11/15 00:27:08;;;;;;;16.77;11.25;;;10.10;76.10;;;;;;5101823;28;20030;-58
2022/11/15 00:29:34;;;;;;;23.65;12.77;;;10.10;76.10;;;;;;5099978;28;20073;-61
2022/11/15 00:32:00;;;;;;;18.23;11.10;;;10.10;76.10;;;;;;5106633;28;20899;-60
2022/11/15 00:34:25;;;;;;;18.73;11.32;;;10.10;76.10;;;;;;5103859;28;20042;-58
2022/11/15 00:36:51;;;;;;;21.13;11.00;;;10.10;76.10;;;;;;5106641;28;20568;-59
2022/11/15 00:39:17;;;;;;;21.73;11.63;;;10.10;76.00;;;;;;5096033;28;20016;-58
2022/11/15 00:41:42;;;;;;;18.48;10.50;;;10.10;75.90;;;;;;5104175;28;20028;-61
2022/11/15 00:44:08;;;;;;;18.73;9.98;;;10.10;75.90;;;;;;5111294;28;20020;-58
2022/11/15 00:46:33;;;;;;;14.73;8.95;;;10.00;75.80;;;;;;5100483;28;20043;-59
2022/11/15 00:48:59;;;;;;;14.45;9.30;;;10.00;75.80;;;;;;5108782;28;20076;-57
2022/11/15 00:51:25;;;;;;;14.68;9.18;;;10.00;75.90;;;;;;5096808;28;20039;-60
2022/11/15 00:53:50;;;;;;;19.15;10.20;;;10.00;76.00;;;;;;5101284;28;20031;-59
2022/11/15 00:56:16;;;;;;;20.60;10.57;;;10.00;76.10;;;;;;5105264;28;20073;-58
2022/11/15 00:58:42;;;;;;;17.20;9.45;;;10.00;76.20;;;;;;5102179;28;20093;-60
2022/11/15 01:01:10;;;;;;;14.10;8.80;;;9.90;76.30;;;;;;5102272;28;20031;-60
2022/11/15 01:03:36;;;;;;;15.63;9.15;;;10.00;76.30;;;;;;5107120;28;20024;-58
2022/11/15 01:06:02;;;;;;;20.23;9.13;;;9.90;76.20;;;;;;5106670;28;20024;-59
2022/11/15 01:08:28;;;;;;;14.10;9.05;;;9.90;76.30;;;;;;5107101;28;20043;-60
2022/11/15 01:10:54;;;;;;;14.73;9.25;;;10.00;76.40;;;;;;5099477;28;20024;-59
2022/11/15 01:13:19;;;;;;;21.15;9.38;;;9.90;76.30;;;;;;5100377;28;20412;-60
2022/11/15 01:15:45;;;;;;;19.75;9.35;;;10.00;76.20;;;;;;5109618;28;20401;-59
2022/11/15 01:18:11;;;;;;;14.77;8.80;;;10.00;76.10;;;;;;5109199;28;20020;-60
2022/11/15 01:20:41;;;;;;;14.00;9.02;;;10.00;76.00;;;;;;5105111;28;20024;-59
2022/11/15 01:23:07;;;;;;;17.10;9.55;;;9.90;76.00;;;;;;5104554;28;20020;-60
2022/11/15 01:25:33;;;;;;;16.70;9.77;;;9.90;75.90;;;;;;5103184;28;20039;-60
2022/11/15 01:27:58;;;;;;;17.40;9.90;;;9.90;75.80;;;;;;5097717;28;20041;-60
2022/11/15 01:30:24;;;;;;;16.05;10.43;;;9.90;75.80;;;;;;5104766;28;20032;-60
2022/11/15 01:32:50;;;;;;;16.55;9.27;;;9.90;75.80;;;;;;5098989;28;20032;-60
2022/11/15 01:35:15;;;;;;;13.48;9.13;;;9.90;75.80;;;;;;5107623;28;20032;-59
2022/11/15 01:37:41;;;;;;;14.45;8.77;;;9.80;75.90;;;;;;5106997;28;20510;-59
2022/11/15 01:40:07;;;;;;;13.13;8.52;;;9.80;75.90;;;;;;5106628;28;20023;-59
2022/11/15 01:42:33;;;;;;;12.55;7.53;;;9.80;76.00;;;;;;5104286;28;20111;-58
2022/11/15 01:44:59;;;;;;;11.90;7.47;;;9.80;76.00;;;;;;5104350;28;20043;-61
2022/11/15 01:47:30;;;;;;;12.50;7.82;;;9.80;76.00;;;;;;5104400;28;20062;-57
2022/11/15 01:50:07;;;;;;;13.27;7.70;;;9.80;76.10;;;;;;5106636;28;20032;-59
2022/11/15 01:52:35;;;;;;;12.10;7.57;;;9.80;76.20;;;;;;5015298;28;20039;-58
2022/11/15 01:55:24;;;;;;;12.00;7.18;;;9.80;76.00;;;;;;5103458;28;20019;-60
2022/11/15 01:57:56;;;;;;;12.32;7.45;;;9.80;76.30;;;;;;5088127;28;20027;-59
2022/11/15 02:00:22;;;;;;;15.07;7.85;;;9.80;76.00;;;;;;5104728;28;20040;-58
2022/11/15 02:02:47;;;;;;;11.27;7.03;;;9.80;75.90;;;;;;5107367;28;20042;-59
2022/11/15 02:05:13;;;;;;;11.48;6.22;;;9.80;76.00;;;;;;5108084;27;20150;-58
2022/11/15 02:07:39;;;;;;;12.18;6.60;;;9.80;76.00;;;;;;5106031;28;20048;-60
2022/11/15 02:10:13;;;;;;;15.43;7.15;;;9.80;76.00;;;;;;5107761;28;20030;-59
2022/11/15 02:12:40;;;;;;;12.55;7.38;;;9.70;75.90;;;;;;5104913;28;20020;-60
2022/11/15 02:15:07;;;;;;;17.13;9.20;;;9.80;75.80;;;;;;5106100;28;20024;-59
2022/11/15 02:17:44;;;;;;;14.13;9.32;;;9.70;75.70;;;;;;5102507;28;20036;-59
2022/11/15 02:20:33;;;;;;;14.43;9.27;;;9.70;75.70;;;;;;5102051;28;20019;-59
2022/11/15 02:23:19;;;;;;;16.60;9.45;;;9.70;75.70;;;;;;5097183;28;20091;-59
2022/11/15 02:26:03;;;;;;;14.77;8.25;;;9.60;75.70;;;;;;5058325;28;20051;-60
2022/11/15 02:29:03;;;;;;;14.85;8.48;;;9.60;75.40;;;;;;5103346;28;20040;-59
2022/11/15 02:31:48;;;;;;;14.77;8.10;;;9.60;75.60;;;;;;5104213;28;20016;-60
2022/11/15 02:34:16;;;;;;;16.42;8.05;;;9.60;75.40;;;;;;5102728;28;20036;-59
2022/11/15 02:37:06;;;;;;;13.68;8.20;;;9.50;75.50;;;;;;5109151;28;20024;-59
2022/11/15 02:39:51;;;;;;;10.93;7.03;;;9.50;75.80;;;;;;5105822;28;20020;-61
2022/11/15 02:45:26;;;;;;;7.53;5.47;;;9.40;76.00;;;;;;5099754;28;19923;-60
2022/11/15 02:47:56;;;;;;;11.40;6.57;;;9.40;75.40;;;;;;5108905;28;20114;-61
2022/11/15 02:50:27;;;;;;;12.57;6.90;;;9.30;75.30;;;;;;5110024;28;20398;-59
2022/11/15 02:52:52;;;;;;;14.00;7.82;;;9.30;75.40;;;;;;5095531;28;20516;-59
2022/11/15 02:55:26;;;;;;;12.38;7.35;;;9.30;74.90;;;;;;5105526;28;20032;-60
2022/11/15 02:58:01;;;;;;;9.95;6.40;;;9.20;75.60;;;;;;5101755;28;20028;-58
2022/11/15 03:00:34;;;;;;;8.55;6.05;;;9.20;75.40;;;;;;5088989;28;20063;-61
2022/11/15 03:03:17;;;;;;;11.18;6.57;;;9.20;75.40;;;;;;5119437;27;20043;-59
2022/11/15 03:06:10;;;;;;;11.90;6.47;;;9.20;75.70;;;;;;5100563;28;20072;-59
2022/11/15 03:08:41;;;;;;;8.27;5.95;;;9.10;75.60;;;;;;5110935;28;20434;-59
2022/11/15 03:11:17;;;;;;;12.95;6.75;;;9.10;75.50;;;;;;5107391;28;20032;-59
2022/11/15 03:13:57;;;;;;;9.00;6.45;;;9.10;75.60;;;;;;5103984;28;20560;-59
2022/11/15 03:16:57;;;;;;;12.55;6.82;;;9.00;75.50;;;;;;5098983;28;20061;-58
2022/11/15 03:19:42;;;;;;;15.13;6.90;;;9.00;75.40;;;;;;5105383;28;20050;-59
2022/11/15 03:22:11;;;;;;;11.40;6.22;;;9.00;75.10;;;;;;5102519;28;20383;-60
2022/11/15 03:24:39;;;;;;;17.40;6.55;;;8.90;74.90;;;;;;5105067;28;20035;-58
2022/11/15 03:27:10;;;;;;;18.20;5.93;;;8.90;74.90;;;;;;5101240;28;20405;-58
2022/11/15 03:29:41;;;;;;;7.13;5.38;;;8.80;74.80;;;;;;5074978;28;20032;-58
2022/11/15 03:32:20;;;;;;;10.10;5.97;;;8.80;74.90;;;;;;5105267;28;20034;-58
2022/11/15 03:35:12;;;;;;;8.35;6.60;;;8.70;74.90;;;;;;5104170;28;20027;-59
2022/11/15 03:37:57;;;;;;;9.63;5.80;;;8.70;74.90;;;;;;5102172;28;20016;-60
2022/11/15 03:40:33;;;;;;;7.07;5.32;;;8.70;75.10;;;;;;5102272;28;20061;-60
2022/11/15 03:43:11;;;;;;;7.88;6.05;;;8.60;75.10;;;;;;5101928;28;20039;-60
2022/11/15 03:45:45;;;;;;;17.60;6.05;;;8.60;75.10;;;;;;5106017;28;20024;-59
2022/11/15 03:48:13;;;;;;;10.05;5.65;;;8.60;75.00;;;;;;5098966;28;20044;-60
2022/11/15 03:50:39;;;;;;;10.35;5.35;;;8.50;75.00;;;;;;4969681;28;20385;-60
2022/11/15 03:53:05;;;;;;;8.43;5.60;;;8.50;75.00;;;;;;5097024;28;20020;-59
2022/11/15 03:55:32;;;;;;;7.60;5.45;;;8.50;75.00;;;;;;5104019;28;20092;-60
2022/11/15 03:58:00;;;;;;;8.48;5.25;;;8.50;74.90;;;;;;5108124;28;20031;-60
2022/11/15 04:00:26;;;;;;;7.38;5.40;;;8.40;74.90;;;;;;5101542;28;20286;-60
2022/11/15 04:02:52;;;;;;;8.75;5.60;;;8.40;74.80;;;;;;5108793;28;20028;-59
2022/11/15 04:05:18;;;;;;;8.57;5.03;;;8.40;74.80;;;;;;5104189;28;20173;-59
2022/11/15 04:07:43;;;;;;;6.20;5.07;;;8.30;74.80;;;;;;5110508;28;20046;-59
2022/11/15 04:10:13;;;;;;;6.40;5.18;;;8.30;74.90;;;;;;5102896;28;20085;-59
2022/11/15 04:12:43;;;;;;;10.60;5.22;;;8.30;74.90;;;;;;5103571;28;20077;-58
2022/11/15 04:15:17;;;;;;;6.63;4.63;;;8.20;74.80;;;;;;5103535;28;20044;-58
2022/11/15 04:17:52;;;;;;;7.47;4.82;;;8.20;74.90;;;;;;5105194;28;20028;-61
2022/11/15 04:26:02;;;;;;;7.00;4.95;;;8.10;74.60;;;;;;5103320;28;20035;-59
2022/11/15 04:28:28;;;;;;;27.85;5.80;;;8.10;74.60;;;;;;5102104;28;20101;-60
2022/11/15 04:30:53;;;;;;;9.68;4.82;;;8.00;74.60;;;;;;5092978;28;20053;-60
2022/11/15 04:33:20;;;;;;;15.90;4.30;;;8.00;74.70;;;;;;5101749;28;20083;-60
2022/11/15 04:37:11;;;;;;;20.50;4.00;;;8.00;74.70;;;;;;5097537;28;20055;-60
2022/11/15 04:38:31;;;;;;;31.98;4.68;;;7.90;74.70;;;;;;5109532;28;20067;-60
2022/11/15 04:40:58;;;;;;;46.30;4.75;;;7.90;74.80;;;;;;5101006;28;20036;-59
2022/11/15 04:43:24;;;;;;;24.05;4.47;;;7.90;75.10;;;;;;5097544;28;20020;-59
2022/11/15 04:45:50;;;;;;;26.77;4.93;;;7.80;75.20;;;;;;5082501;28;20024;-59
2022/11/15 04:48:15;;;;;;;14.00;4.95;;;7.80;75.30;;;;;;5105639;28;20035;-58
2022/11/15 04:50:41;;;;;;;15.93;4.50;;;7.80;75.40;;;;;;5101768;28;20100;-59
2022/11/15 04:53:07;;;;;;;36.58;4.80;;;7.80;75.40;;;;;;5108021;28;20027;-58
2022/11/15 04:55:32;;;;;;;10.25;4.50;;;7.80;75.50;;;;;;5095089;28;20024;-59
2022/11/15 04:58:02;;;;;;;22.23;4.65;;;7.80;75.50;;;;;;5104291;28;20066;-58
2022/11/15 05:00:28;;;;;;;15.32;4.60;;;7.70;75.50;;;;;;5101001;28;20016;-59
2022/11/15 05:05:39;;;;;;;8.70;4.90;;;7.70;75.60;;;;;;5100423;28;20077;-59
2022/11/15 05:08:04;;;;;;;9.38;5.45;;;7.70;75.60;;;;;;5104628;28;20441;-58
2022/11/15 05:10:30;;;;;;;7.95;5.75;;;7.70;75.80;;;;;;5107906;28;20039;-59
2022/11/15 05:12:56;;;;;;;10.18;5.65;;;7.70;75.80;;;;;;5104334;28;20036;-58
2022/11/15 05:15:22;;;;;;;9.30;5.80;;;7.70;76.00;;;;;;5105395;28;20473;-59
2022/11/15 05:17:47;;;;;;;10.50;6.20;;;7.70;76.10;;;;;;5099228;28;20033;-60
2022/11/15 05:20:13;;;;;;;7.07;5.78;;;7.70;76.20;;;;;;5107505;28;20079;-60
2022/11/15 05:22:39;;;;;;;7.32;5.78;;;7.70;76.20;;;;;;5104088;28;20024;-59
2022/11/15 05:25:06;;;;;;;9.23;5.90;;;7.80;76.30;;;;;;5098448;28;20170;-58
2022/11/15 05:27:33;;;;;;;8.63;6.00;;;7.80;76.30;;;;;;5103293;28;20051;-60
2022/11/15 05:29:58;;;;;;;7.95;5.93;;;7.80;76.30;;;;;;5102197;28;20039;-59
2022/11/15 05:32:24;;;;;;;13.98;7.45;;;7.80;76.30;;;;;;5103039;28;20028;-59
2022/11/15 05:34:50;;;;;;;18.77;8.60;;;7.80;76.30;;;;;;5086366;28;20055;-60
2022/11/15 05:37:16;;;;;;;22.75;14.27;;;7.80;76.30;;;;;;5105031;28;20043;-60
2022/11/15 05:39:41;;;;;;;31.60;16.35;;;7.90;76.40;;;;;;5106254;28;20152;-59
2022/11/15 05:42:16;;;;;;;35.47;18.83;;;7.90;76.50;;;;;;5089099;28;20032;-59
2022/11/15 05:44:47;;;;;;;32.55;18.33;;;7.90;76.60;;;;;;5102625;28;20031;-59
2022/11/15 05:47:24;;;;;;;30.02;17.08;;;7.90;76.40;;;;;;5095701;28;20051;-57
2022/11/15 05:49:52;;;;;;;30.45;15.57;;;7.90;76.40;;;;;;5098555;28;20532;-60
2022/11/15 05:52:22;;;;;;;28.58;14.80;;;8.00;76.30;;;;;;5104845;28;20071;-59
2022/11/15 05:54:49;;;;;;;28.42;15.23;;;8.00;76.30;;;;;;5101876;28;20024;-60
2022/11/15 05:57:15;;;;;;;17.55;11.75;;;8.00;76.30;;;;;;5111407;28;20020;-59
2022/11/15 05:59:43;;;;;;;18.80;13.00;;;8.00;76.30;;;;;;5103661;28;20024;-58
2022/11/15 06:02:09;;;;;;;18.52;11.77;;;8.00;76.20;;;;;;5102726;28;20038;-58
2022/11/15 06:04:35;;;;;;;29.80;14.50;;;8.00;76.10;;;;;;5094262;28;20090;-59
2022/11/15 06:07:00;;;;;;;60.22;23.77;;;8.00;76.10;;;;;;5083959;28;20047;-59
2022/11/15 06:09:26;;;;;;;40.65;19.63;;;8.00;76.20;;;;;;5106696;28;20111;-60
2022/11/15 06:11:52;;;;;;;32.42;16.70;;;8.00;76.20;;;;;;5102912;28;20036;-60
2022/11/15 06:14:17;;;;;;;28.90;15.02;;;8.00;76.20;;;;;;5111669;28;20032;-61
2022/11/15 06:16:44;;;;;;;25.60;14.20;;;8.00;76.20;;;;;;5108260;28;20046;-58
2022/11/15 06:19:09;;;;;;;27.08;12.65;;;8.00;76.20;;;;;;5109541;28;20077;-59
2022/11/15 06:21:35;;;;;;;25.60;13.23;;;8.10;76.20;;;;;;5108269;28;20024;-59
2022/11/15 06:24:01;;;;;;;22.00;11.73;;;8.10;76.20;;;;;;5111270;28;20034;-60
2022/11/15 06:26:26;;;;;;;20.88;12.27;;;8.10;76.20;;;;;;5108556;28;20028;-59
2022/11/15 06:28:52;;;;;;;22.63;11.63;;;8.10;76.30;;;;;;5088267;28;20039;-59
2022/11/15 06:31:18;;;;;;;25.02;12.88;;;8.10;76.20;;;;;;5103543;28;20047;-59
2022/11/15 06:33:44;;;;;;;21.17;12.10;;;8.10;76.20;;;;;;5083791;28;20027;-59
2022/11/15 06:36:16;;;;;;;24.48;12.05;;;8.10;76.20;;;;;;5101969;28;20051;-58
2022/11/15 06:38:41;;;;;;;25.08;12.77;;;8.10;76.10;;;;;;5092107;28;20016;-61
2022/11/15 06:41:09;;;;;;;20.15;11.77;;;8.20;76.30;;;;;;5111238;28;20052;-59
2022/11/15 06:43:36;;;;;;;24.90;12.50;;;8.20;76.30;;;;;;5102772;28;20020;-62
2022/11/15 06:46:02;;;;;;;19.08;10.57;;;8.20;76.40;;;;;;5106160;28;20044;-59
2022/11/15 06:48:29;;;;;;;18.63;11.10;;;8.20;76.40;;;;;;5105496;28;20093;-60
2022/11/15 06:50:57;;;;;;;19.42;10.50;;;8.20;76.40;;;;;;5011426;28;20046;-61
2022/11/15 06:53:23;;;;;;;20.25;11.82;;;8.20;76.50;;;;;;5104632;28;20032;-58
2022/11/15 06:55:49;;;;;;;25.35;12.13;;;8.30;76.60;;;;;;5104854;28;20111;-59
2022/11/15 06:58:15;;;;;;;20.08;12.45;;;8.30;76.60;;;;;;5101218;28;20586;-59
2022/11/15 07:00:41;;;;;;;22.52;12.15;;;8.40;76.80;;;;;;5119743;28;20113;-58
2022/11/15 07:03:08;;;;;;;22.83;12.73;;;8.40;76.90;;;;;;5085077;28;20028;-58
2022/11/15 07:05:34;;;;;;;18.83;10.85;;;8.40;76.90;;;;;;5102461;28;20031;-58
2022/11/15 07:08:00;;;;;;;11.45;7.53;;;8.50;76.90;;;;;;5105754;28;20048;-60
2022/11/15 07:10:27;;;;;;;10.30;6.97;;;8.60;77.00;;;;;;5107794;28;20069;-60
2022/11/15 07:12:53;;;;;;;10.02;6.15;;;8.60;77.00;;;;;;5099112;28;20071;-59
2022/11/15 07:15:20;;;;;;;8.68;6.28;;;8.70;77.00;;;;;;5106920;28;20125;-59
2022/11/15 07:17:46;;;;;;;8.57;6.35;;;8.80;77.10;;;;;;5110037;28;20019;-60
2022/11/15 07:20:15;;;;;;;8.77;6.57;;;8.80;77.00;;;;;;5087899;28;20035;-59
2022/11/15 07:22:41;;;;;;;12.52;6.20;;;8.90;77.10;;;;;;5089175;28;20031;-60
2022/11/15 07:25:08;;;;;;;9.68;6.32;;;9.00;77.00;;;;;;5100606;28;20050;-59
2022/11/15 07:27:34;;;;;;;12.07;6.72;;;9.10;76.90;;;;;;5108858;28;20043;-60
2022/11/15 07:29:59;;;;;;;10.27;7.28;;;9.10;76.70;;;;;;5109356;28;22495;-60
2022/11/15 07:32:25;;;;;;;11.57;6.93;;;9.20;76.60;;;;;;5095834;28;20036;-60
2022/11/15 07:34:51;;;;;;;12.25;7.20;;;9.30;76.60;;;;;;5097213;28;20040;-59
2022/11/15 07:37:16;;;;;;;10.75;7.63;;;9.30;76.50;;;;;;5103536;28;21138;-60
2022/11/15 07:39:43;;;;;;;10.45;6.85;;;9.40;76.50;;;;;;5101308;28;20050;-59
2022/11/15 07:44:53;;;;;;;9.52;6.72;;;9.50;76.40;;;;;;5102385;28;20039;-60
2022/11/15 07:47:19;;;;;;;8.18;5.82;;;9.60;76.30;;;;;;5103578;28;20052;-58
2022/11/15 07:49:45;;;;;;;10.80;6.30;;;9.70;76.30;;;;;;5102598;28;20081;-59
2022/11/15 07:52:12;;;;;;;8.13;5.68;;;9.80;76.30;;;;;;5105427;28;20023;-58
2022/11/15 07:54:38;;;;;;;8.23;6.05;;;9.80;76.20;;;;;;5103904;28;20074;-60
2022/11/15 07:57:04;;;;;;;10.70;5.85;;;9.90;76.20;;;;;;5101555;28;20074;-59
2022/11/15 07:59:30;;;;;;;13.00;6.53;;;9.90;76.00;;;;;;5102300;28;20020;-58
2022/11/15 08:01:56;;;;;;;9.05;5.97;;;10.00;76.00;;;;;;5105887;28;20072;-59
2022/11/15 08:04:21;;;;;;;10.25;6.43;;;10.10;75.90;;;;;;5106133;28;20106;-61
2022/11/15 08:06:47;;;;;;;8.10;6.20;;;10.20;75.70;;;;;;5108297;28;20028;-58
2022/11/15 08:09:13;;;;;;;10.88;6.47;;;10.30;75.60;;;;;;5101659;28;20062;-59
2022/11/15 08:11:38;;;;;;;8.90;5.93;;;10.30;75.40;;;;;;5098306;28;20024;-60
2022/11/15 08:14:04;;;;;;;9.02;5.53;;;10.40;75.30;;;;;;5097364;28;20032;-59
2022/11/15 08:16:30;;;;;;;10.20;5.90;;;10.50;75.30;;;;;;5098240;28;20039;-59
2022/11/15 08:18:55;;;;;;;9.90;6.03;;;10.50;75.30;;;;;;5097518;28;20037;-59
2022/11/15 08:21:23;;;;;;;8.30;5.85;;;10.60;75.20;;;;;;5083840;28;20058;-58
2022/11/15 08:23:49;;;;;;;10.10;6.20;;;10.60;75.00;;;;;;5107734;28;20031;-58
2022/11/15 08:26:15;;;;;;;17.10;6.40;;;10.70;74.90;;;;;;5089466;28;20024;-60
2022/11/15 08:28:41;;;;;;;15.63;6.18;;;10.80;74.90;;;;;;5100144;28;20046;-59
2022/11/15 08:31:06;;;;;;;9.13;6.18;;;10.90;74.90;;;;;;5100133;28;20040;-60
2022/11/15 08:33:33;;;;;;;9.35;6.07;;;10.90;74.80;;;;;;5102547;28;20024;-59
2022/11/15 08:36:00;;;;;;;12.52;5.75;;;11.00;74.70;;;;;;5105924;28;20391;-60
2022/11/15 08:38:28;;;;;;;9.32;6.10;;;11.10;74.60;;;;;;5099796;28;20020;-59
2022/11/15 08:41:01;;;;;;;10.85;5.78;;;11.20;74.40;;;;;;5098794;28;20067;-58
2022/11/15 08:43:27;;;;;;;8.38;5.93;;;11.30;74.30;;;;;;5098048;28;20023;-60
2022/11/15 08:45:56;;;;;;;18.70;7.00;;;11.40;74.30;;;;;;5091769;28;20020;-59
2022/11/15 08:48:22;;;;;;;10.10;6.65;;;11.40;74.10;;;;;;5103011;28;20066;-59
2022/11/15 08:50:49;;;;;;;12.75;7.07;;;11.50;74.00;;;;;;5098475;28;20040;-60
2022/11/15 08:53:14;;;;;;;12.80;7.82;;;11.60;73.80;;;;;;5103583;28;20034;-60
2022/11/15 08:55:41;;;;;;;15.27;8.82;;;11.60;73.50;;;;;;5088288;28;20024;-59
2022/11/15 08:58:07;;;;;;;18.27;9.43;;;11.70;73.50;;;;;;5103472;28;20093;-61
2022/11/15 09:00:33;;;;;;;14.73;8.40;;;11.80;73.50;;;;;;5102178;28;20104;-58
2022/11/15 09:02:59;;;;;;;14.50;8.27;;;11.90;73.30;;;;;;5105062;28;20028;-59
2022/11/15 09:05:25;;;;;;;14.95;9.30;;;11.90;73.10;;;;;;5107095;28;20023;-59
2022/11/15 09:07:54;;;;;;;18.38;9.23;;;12.00;73.00;;;;;;5100337;28;20039;-60
2022/11/15 09:10:20;;;;;;;14.07;8.60;;;12.10;72.80;;;;;;5103928;28;20024;-59
2022/11/15 09:12:48;;;;;;;15.55;8.07;;;12.20;72.80;;;;;;5101183;28;20020;-59
2022/11/15 09:15:14;;;;;;;14.70;10.05;;;12.20;72.50;;;;;;5089338;28;20039;-60
2022/11/15 09:17:40;;;;;;;19.48;8.73;;;12.30;72.40;;;;;;5106012;28;20088;-60
2022/11/15 09:20:07;;;;;;;13.18;8.50;;;12.30;71.70;;;;;;5104514;28;20027;-60
2022/11/15 09:22:33;;;;;;;15.27;8.52;;;12.30;71.90;;;;;;5087176;28;20043;-60
2022/11/15 09:24:59;;;;;;;22.25;9.57;;;12.40;72.10;;;;;;5103335;28;20068;-58
2022/11/15 09:27:28;;;;;;;19.13;9.30;;;12.40;72.30;;;;;;5098244;28;20115;-58
2022/11/15 09:29:54;;;;;;;21.15;10.60;;;12.50;72.00;;;;;;5101603;28;20044;-58
2022/11/15 09:32:19;;;;;;;26.92;10.65;;;12.60;72.10;;;;;;5104042;28;20030;-61
2022/11/15 09:34:45;;;;;;;16.02;9.25;;;12.70;72.00;;;;;;5106524;28;20028;-59
2022/11/15 09:37:12;;;;;;;17.27;9.18;;;12.70;72.00;;;;;;5101167;28;20075;-59
2022/11/15 09:39:37;;;;;;;21.55;11.30;;;12.80;71.90;;;;;;5101497;28;20076;-60
2022/11/15 09:42:22;;;;;;;17.00;9.65;;;12.90;72.00;;;;;;5104105;28;20043;-59
2022/11/15 09:44:59;;;;;;;17.10;9.75;;;13.10;70.80;;;;;;5092375;28;20028;-59
2022/11/15 09:47:37;;;;;;;17.13;9.57;;;13.20;71.00;;;;;;5096596;28;20031;-59
2022/11/15 09:50:10;;;;;;;16.60;8.90;;;13.30;70.40;;;;;;5037785;28;20552;-60
2022/11/15 09:52:37;;;;;;;13.80;7.82;;;13.40;70.20;;;;;;5088729;28;20028;-58
2022/11/15 09:55:07;;;;;;;15.68;8.40;;;13.50;70.50;;;;;;5106020;28;20016;-60
2022/11/15 09:57:48;;;;;;;14.13;7.35;;;13.50;70.10;;;;;;5099708;28;20024;-59
2022/11/15 10:00:21;;;;;;;12.07;8.18;;;13.70;69.50;;;;;;5099784;28;20490;-60
2022/11/15 10:02:57;;;;;;;11.57;7.30;;;13.70;69.60;;;;;;5103958;28;20058;-58
2022/11/15 10:05:25;;;;;;;14.90;7.55;;;13.90;69.20;;;;;;5110562;28;20024;-60
2022/11/15 10:08:16;;;;;;;13.05;7.70;;;13.90;69.50;;;;;;5106023;28;20709;-60
2022/11/15 10:10:46;;;;;;;11.68;6.53;;;14.00;68.80;;;;;;5102585;28;20020;-59
2022/11/15 10:13:32;;;;;;;16.95;6.80;;;14.10;68.70;;;;;;5103024;28;20032;-59
2022/11/15 10:16:16;;;;;;;12.20;6.57;;;14.10;67.50;;;;;;5106454;28;20023;-59
2022/11/15 10:18:51;;;;;;;10.00;7.10;;;14.20;67.80;;;;;;5111740;28;20032;-59
2022/11/15 10:21:24;;;;;;;10.18;6.53;;;14.20;68.10;;;;;;5086153;28;20067;-60
2022/11/15 10:23:50;;;;;;;10.73;6.43;;;14.30;67.70;;;;;;5107938;28;20024;-59
2022/11/15 10:26:17;;;;;;;11.15;5.53;;;14.40;67.80;;;;;;5108022;28;20089;-60
2022/11/15 10:28:43;;;;;;;9.32;5.88;;;14.50;68.10;;;;;;5112637;28;20036;-59
2022/11/15 10:31:23;;;;;;;7.40;5.30;;;14.60;68.00;;;;;;5102775;28;20029;-59
2022/11/15 10:33:50;;;;;;;13.15;5.68;;;14.70;66.80;;;;;;5101263;28;20069;-60
2022/11/15 10:36:25;;;;;;;10.90;6.30;;;14.80;67.50;;;;;;5095921;28;20028;-59
2022/11/15 10:38:55;;;;;;;7.15;5.43;;;14.90;66.60;;;;;;5096847;28;20375;-60
2022/11/15 10:41:30;;;;;;;12.00;5.57;;;14.90;67.00;;;;;;5096610;28;20180;-58
2022/11/15 10:44:22;;;;;;;9.35;5.22;;;15.00;66.80;;;;;;5094172;28;20035;-60
2022/11/15 10:47:05;;;;;;;15.32;7.18;;;15.00;65.20;;;;;;5101151;28;20040;-60
2022/11/15 10:49:33;;;;;;;12.23;6.82;;;15.00;65.50;;;;;;5099060;28;20040;-59
2022/11/15 10:52:01;;;;;;;14.00;6.90;;;15.00;66.20;;;;;;5100353;28;20031;-59
2022/11/15 10:54:38;;;;;;;11.38;7.43;;;15.00;65.70;;;;;;5109441;28;20028;-59
2022/11/15 10:57:31;;;;;;;17.10;9.50;;;14.90;65.50;;;;;;5107664;28;20027;-60
2022/11/15 11:00:00;;;;;;;15.27;8.18;;;15.00;65.60;;;;;;5092348;28;20036;-58
2022/11/15 11:02:34;;;;;;;16.23;8.10;;;15.00;66.50;;;;;;5104929;28;20035;-60
2022/11/15 11:05:01;;;;;;;;;;;15.00;66.30;;;;;;5106694;28;20110;-59
2022/11/15 11:07:29;;;;;;;10.68;6.78;;;15.00;65.90;;;;;;5104305;28;19965;-60
2022/11/15 11:10:04;;;;;;;12.73;7.75;;;15.10;66.80;;;;;;5107979;28;20027;-59
2022/11/15 11:12:33;;;;;;;10.68;7.45;;;15.10;66.00;;;;;;5097643;28;20038;-59
2022/11/15 11:15:01;;;;;;;14.10;7.40;;;15.20;66.70;;;;;;5110156;28;20024;-60
2022/11/15 11:17:56;;;;;;;12.13;7.03;;;15.30;65.80;;;;;;5111031;28;20027;-59
2022/11/15 11:20:27;;;;;;;;;;;15.30;65.40;;;;;;5092769;28;20032;-60
2022/11/15 11:23:20;;;;;;;11.68;5.25;;;15.40;65.30;;;;;;5108208;28;19922;-59
2022/11/15 11:25:51;;;;;;;6.93;5.07;;;15.50;64.20;;;;;;5101823;28;20024;-59
2022/11/15 11:28:35;;;;;;;8.98;4.75;;;15.60;64.30;;;;;;5108933;28;20040;-59
2022/11/15 11:31:16;;;;;;;7.80;5.50;;;15.70;63.40;;;;;;5096841;28;20023;-58
2022/11/15 11:33:47;;;;;;;7.15;5.25;;;15.70;62.90;;;;;;5106308;28;20032;-58
2022/11/15 11:36:25;;;;;;;9.23;4.93;;;15.70;62.60;;;;;;5105266;28;20020;-59
2022/11/15 11:39:00;;;;;;;13.75;5.72;;;15.70;62.30;;;;;;5094794;28;20028;-59
2022/11/15 11:41:44;;;;;;;9.07;5.43;;;15.80;62.60;;;;;;5108514;28;20543;-59
2022/11/15 11:44:19;;;;;;;6.83;5.23;;;15.90;61.70;;;;;;5093998;28;20024;-60
2022/11/15 11:47:11;;;;;;;6.68;4.35;;;16.00;62.80;;;;;;5103385;28;20338;-61
2022/11/15 11:49:51;;;;;;;5.07;3.97;;;16.00;60.90;;;;;;5102777;28;20037;-58
2022/11/15 11:52:39;;;;;;;6.18;4.50;;;16.10;61.70;;;;;;5100224;28;20024;-60
2022/11/15 11:55:28;;;;;;;5.40;4.00;;;16.20;61.70;;;;;;5106274;28;20019;-60
2022/11/15 11:58:12;;;;;;;5.35;4.05;;;16.30;60.50;;;;;;5107991;28;20024;-59
2022/11/15 12:00:43;;;;;;;6.35;4.15;;;16.40;60.50;;;;;;5097820;28;20021;-59
2022/11/15 12:03:32;;;;;;;4.93;3.70;;;16.40;61.50;;;;;;5100689;28;20063;-60
2022/11/15 12:06:09;;;;;;;5.40;4.13;;;16.50;61.00;;;;;;5096853;28;20032;-59
2022/11/15 12:08:57;;;;;;;7.18;3.88;;;16.60;62.70;;;;;;5095437;28;20099;-59
2022/11/15 12:11:48;;;;;;;6.47;3.50;;;16.70;60.80;;;;;;5100564;28;20080;-59
2022/11/15 12:14:31;;;;;;;4.50;3.33;;;16.80;60.80;;;;;;5104450;28;20032;-59
2022/11/15 12:16:58;;;;;;;4.57;3.40;;;16.90;59.90;;;;;;5094182;28;20027;-59
2022/11/15 12:19:25;;;;;;;4.18;3.33;;;17.00;61.40;;;;;;5103594;28;20050;-60
2022/11/15 12:21:59;;;;;;;4.55;3.80;;;17.10;60.30;;;;;;5100499;28;20016;-58
2022/11/15 12:24:41;;;;;;;8.35;3.78;;;17.10;59.40;;;;;;5101071;28;20102;-58
2022/11/15 12:27:13;;;;;;;5.05;3.63;;;17.10;59.00;;;;;;5098540;28;20040;-59
2022/11/15 12:29:54;;;;;;;6.90;4.00;;;17.10;58.00;;;;;;5100672;28;20040;-59
2022/11/15 12:32:32;;;;;;;4.60;3.70;;;17.10;58.10;;;;;;5101225;28;20051;-59
2022/11/15 12:35:00;;;;;;;5.63;3.60;;;17.00;57.10;;;;;;5101638;28;20063;-60
2022/11/15 12:37:38;;;;;;;6.07;3.78;;;16.90;58.20;;;;;;5107924;28;20099;-59
2022/11/15 12:40:10;;;;;;;3.83;3.22;;;16.90;57.70;;;;;;5100758;28;20031;-60
2022/11/15 12:42:42;;;;;;;4.10;3.33;;;16.80;58.30;;;;;;5107935;28;21731;-59
2022/11/15 12:45:38;;;;;;;6.10;3.63;;;16.80;58.80;;;;;;5099624;28;20032;-60
2022/11/15 12:48:16;;;;;;;4.38;3.35;;;16.80;58.20;;;;;;5099918;28;20059;-59
2022/11/15 12:50:54;;;;;;;7.82;3.72;;;16.80;58.50;;;;;;5103304;28;20043;-59
2022/11/15 12:53:34;;;;;;;6.30;3.30;;;16.80;59.10;;;;;;5081881;28;20076;-58
2022/11/15 12:56:12;;;;;;;6.25;3.50;;;16.80;58.30;;;;;;5089358;28;20028;-60
2022/11/15 12:58:58;;;;;;;6.63;3.40;;;16.80;58.40;;;;;;5100691;28;20024;-59
2022/11/15 13:01:30;;;;;;;6.43;3.47;;;16.90;57.80;;;;;;5097590;28;20026;-58
2022/11/15 13:04:14;;;;;;;4.13;3.03;;;17.00;58.80;;;;;;5096058;28;20016;-60
2022/11/15 13:06:41;;;;;;;6.67;3.37;;;17.10;57.90;;;;;;5099716;28;20034;-60
2022/11/15 13:09:32;;;;;;;7.00;3.75;;;17.20;58.70;;;;;;5108642;28;20298;-60
2022/11/15 13:12:27;;;;;;;4.05;3.22;;;17.20;57.10;;;;;;5099382;28;20062;-59
2022/11/15 13:14:59;;;;;;;4.68;3.33;;;17.20;57.20;;;;;;5076689;28;20040;-59